Time;durP1;ratioP1;P1;durP2;ratioP2;P2;SDS_P1;SDS_P2;PMS_P1;PMS_P2;Temp;Humidity;BMP_temperature;BMP_pressure;BME280_temperature;BME280_humidity;BME280_pressure;Samples;Min_cycle;Max_cycle;Signal;HPM_P1;HPM_P2
2021/06/02 00:02:10;;;;;;;;;;;;;;;;;;5050068;28;20329;-72
2021/06/02 00:04:36;;;;;;;;;;;;;;;;;;5051826;28;20387;-72
2021/06/02 00:07:02;;;;;;;;;;;;;;;;;;5053026;28;20382;-73
2021/06/02 00:09:28;;;;;;;;;;;;;;;;;;5051985;28;20000;-72
2021/06/02 00:11:56;;;;;;;;;;;;;;;;;;5046810;28;20844;-73
2021/06/02 00:14:22;;;;;;;;;;;;;;;;;;5036879;28;19913;-72
2021/06/02 00:16:48;;;;;;;;;;;;;;;;;;5037369;28;19919;-73
2021/06/02 00:19:14;;;;;;;;;;;;;;;;;;5051117;28;20626;-72
2021/06/02 00:21:39;;;;;;;;;;;;;;;;;;5040736;28;19936;-73
2021/06/02 00:24:05;;;;;;;;;;;;;;;;;;5045693;28;20016;-72
2021/06/02 00:26:31;;;;;;;;;;;;;;;;;;5052428;28;19913;-73
2021/06/02 00:28:57;;;;;;;;;;;;;;;;;;5051310;28;20323;-73
2021/06/02 00:31:23;;;;;;;;;;;;;;;;;;5042800;28;19940;-72
2021/06/02 00:33:49;;;;;;;;;;;;;;;;;;5036523;28;20348;-72
2021/06/02 00:36:15;;;;;;;;;;;;;;;;;;5050343;28;19923;-72
2021/06/02 00:38:41;;;;;;;;;;;;;;;;;;5051668;28;19919;-72
2021/06/02 00:41:06;;;;;;;;;;;;;;;;;;5051884;28;19916;-72
2021/06/02 00:43:32;;;;;;;;;;;;;;;;;;5043368;28;20337;-72
2021/06/02 00:45:58;;;;;;;;;;;;;;;;;;5040168;28;19941;-72
2021/06/02 00:48:24;;;;;;;;;;;;;;;;;;5045383;28;19920;-72
2021/06/02 00:50:50;;;;;;;;;;;;;;;;;;5044896;28;19936;-73
2021/06/02 00:53:16;;;;;;;;;;;;;;;;;;5036030;28;20407;-72
2021/06/02 00:55:42;;;;;;;;;;;;;;;;;;5037752;28;20008;-72
2021/06/02 00:58:08;;;;;;;;;;;;;;;;;;5036294;28;19917;-73
2021/06/02 01:00:34;;;;;;;;;;;;;;;;;;5037977;28;19921;-72
2021/06/02 01:03:00;;;;;;;;;;;;;;;;;;5033832;28;19913;-73
2021/06/02 01:05:26;;;;;;;;;;;;;;;;;;5047393;28;20026;-73
2021/06/02 01:07:52;;;;;;;;;;;;;;;;;;5031688;28;19909;-73
2021/06/02 01:10:17;;;;;;;;;;;;;;;;;;5045166;28;19925;-73
2021/06/02 01:12:43;;;;;;;;;;;;;;;;;;5044666;28;20367;-72
2021/06/02 01:15:09;;;;;;;;;;;;;;;;;;5039573;28;19920;-72
2021/06/02 01:17:35;;;;;;;;;;;;;;;;;;5047042;28;20272;-72
2021/06/02 01:20:01;;;;;;;;;;;;;;;;;;5033293;28;19951;-73
2021/06/02 01:22:29;;;;;;;;;;;;;;;;;;5039992;28;19913;-72
2021/06/02 01:24:54;;;;;;;;;;;;;;;;;;5031718;28;19924;-72
2021/06/02 01:27:20;;;;;;;;;;;;;;;;;;5043583;28;19912;-72
2021/06/02 01:29:46;;;;;;;;;;;;;;;;;;5048600;28;19928;-72
2021/06/02 01:32:12;;;;;;;;;;;;;;;;;;5034348;28;19913;-73
2021/06/02 01:34:38;;;;;;;;;;;;;;;;;;5036031;28;20378;-72
2021/06/02 01:37:04;;;;;;;;;;;;;;;;;;5048281;28;19963;-73
2021/06/02 01:39:30;;;;;;;;;;;;;;;;;;5046573;28;19913;-72
2021/06/02 01:41:56;;;;;;;;;;;;;;;;;;5049653;28;19913;-72
2021/06/02 01:44:22;;;;;;;;;;;;;;;;;;5047675;28;20311;-72
2021/06/02 01:46:47;;;;;;;;;;;;;;;;;;5050623;28;19925;-73
2021/06/02 01:49:13;;;;;;;;;;;;;;;;;;5048769;28;19939;-72
2021/06/02 01:51:39;;;;;;;;;;;;;;;;;;5043679;28;19967;-72
2021/06/02 01:54:05;;;;;;;;;;;;;;;;;;5034141;28;20351;-72
2021/06/02 01:56:31;;;;;;;;;;;;;;;;;;5049688;28;19916;-73
2021/06/02 01:58:57;;;;;;;;;;;;;;;;;;5047185;28;20370;-72
2021/06/02 02:01:23;;;;;;;;;;;;;;;;;;5049669;28;19919;-73
2021/06/02 02:03:48;;;;;;;;;;;;;;;;;;5046021;28;19928;-74
2021/06/02 02:06:14;;;;;;;;;;;;;;;;;;5037749;28;19999;-72
2021/06/02 02:08:40;;;;;;;;;;;;;;;;;;5041099;28;19925;-74
2021/06/02 02:11:06;;;;;;;;;;;;;;;;;;5042794;28;19924;-73
2021/06/02 02:13:32;;;;;;;;;;;;;;;;;;5051123;28;19916;-73
2021/06/02 02:15:58;;;;;;;;;;;;;;;;;;5049688;28;19935;-73
2021/06/02 02:18:24;;;;;;;;;;;;;;;;;;5046342;28;19970;-73
2021/06/02 02:20:50;;;;;;;;;;;;;;;;;;5032847;28;20237;-73
2021/06/02 02:23:15;;;;;;;;;;;;;;;;;;5037797;28;19913;-72
2021/06/02 02:25:41;;;;;;;;;;;;;;;;;;5030933;28;20000;-71
2021/06/02 02:28:07;;;;;;;;;;;;;;;;;;5035314;28;19913;-73
2021/06/02 02:30:33;;;;;;;;;;;;;;;;;;5030169;28;20355;-72
2021/06/02 02:32:59;;;;;;;;;;;;;;;;;;5042849;28;19913;-72
2021/06/02 02:35:25;;;;;;;;;;;;;;;;;;5049715;28;19940;-72
2021/06/02 02:37:51;;;;;;;;;;;;;;;;;;5040040;28;20007;-72
2021/06/02 02:40:17;;;;;;;;;;;;;;;;;;5049646;28;19935;-72
2021/06/02 02:42:43;;;;;;;;;;;;;;;;;;5048268;28;19917;-72
2021/06/02 02:45:09;;;;;;;;;;;;;;;;;;5035626;28;19913;-72
2021/06/02 02:47:35;;;;;;;;;;;;;;;;;;5044735;28;19924;-72
2021/06/02 02:50:00;;;;;;;;;;;;;;;;;;5031654;28;19921;-72
2021/06/02 02:52:26;;;;;;;;;;;;;;;;;;5031984;28;19909;-72
2021/06/02 02:54:52;;;;;;;;;;;;;;;;;;5032738;28;20411;-73
2021/06/02 02:57:18;;;;;;;;;;;;;;;;;;5042994;28;19913;-73
2021/06/02 02:59:44;;;;;;;;;;;;;;;;;;5030393;28;19913;-72
2021/06/02 03:02:10;;;;;;;;;;;;;;;;;;5031596;28;20516;-73
2021/06/02 03:04:36;;;;;;;;;;;;;;;;;;5033790;28;19920;-72
2021/06/02 03:07:02;;;;;;;;;;;;;;;;;;5040892;28;20020;-73
2021/06/02 03:09:28;;;;;;;;;;;;;;;;;;5038647;28;20007;-72
2021/06/02 03:11:54;;;;;;;;;;;;;;;;;;5043832;28;19913;-73
2021/06/02 03:14:20;;;;;;;;;;;;;;;;;;5049335;28;19913;-73
2021/06/02 03:16:46;;;;;;;;;;;;;;;;;;5047067;28;20004;-72
2021/06/02 03:19:12;;;;;;;;;;;;;;;;;;5035189;28;19916;-73
2021/06/02 03:21:37;;;;;;;;;;;;;;;;;;5038621;28;20070;-73
2021/06/02 03:24:03;;;;;;;;;;;;;;;;;;5054380;28;20004;-73
2021/06/02 03:26:29;;;;;;;;;;;;;;;;;;5047237;28;19909;-72
2021/06/02 03:28:55;;;;;;;;;;;;;;;;;;5052286;28;19916;-71
2021/06/02 03:31:21;;;;;;;;;;;;;;;;;;5044809;28;20303;-72
2021/06/02 03:33:47;;;;;;;;;;;;;;;;;;5040975;28;20000;-72
2021/06/02 03:36:13;;;;;;;;;;;;;;;;;;5048635;28;20381;-72
2021/06/02 03:38:39;;;;;;;;;;;;;;;;;;5043834;28;19941;-72
2021/06/02 03:41:05;;;;;;;;;;;;;;;;;;5050163;28;19917;-73
2021/06/02 03:43:30;;;;;;;;;;;;;;;;;;5047520;28;19913;-73
2021/06/02 03:45:56;;;;;;;;;;;;;;;;;;5033919;28;19915;-72
2021/06/02 03:48:22;;;;;;;;;;;;;;;;;;5039328;28;19921;-72
2021/06/02 03:50:48;;;;;;;;;;;;;;;;;;5035659;28;19928;-72
2021/06/02 03:53:14;;;;;;;;;;;;;;;;;;5050740;28;19927;-73
2021/06/02 03:55:40;;;;;;;;;;;;;;;;;;5034899;28;20016;-73
2021/06/02 03:58:06;;;;;;;;;;;;;;;;;;5033800;28;20333;-73
2021/06/02 04:00:32;;;;;;;;;;;;;;;;;;5046898;28;19928;-73
2021/06/02 04:02:58;;;;;;;;;;;;;;;;;;5051798;28;19912;-73
2021/06/02 04:05:24;;;;;;;;;;;;;;;;;;5049857;28;20239;-73
2021/06/02 04:07:50;;;;;;;;;;;;;;;;;;5048658;28;20011;-73
2021/06/02 04:10:16;;;;;;;;;;;;;;;;;;5050955;28;19928;-73
2021/06/02 04:12:42;;;;;;;;;;;;;;;;;;5052177;28;19972;-73
2021/06/02 04:15:08;;;;;;;;;;;;;;;;;;5051209;28;19913;-73
2021/06/02 04:17:34;;;;;;;;;;;;;;;;;;5051310;28;20035;-72
2021/06/02 04:20:00;;;;;;;;;;;;;;;;;;5043964;28;20059;-73
2021/06/02 04:22:26;;;;;;;;;;;;;;;;;;5049831;28;19912;-72
2021/06/02 04:24:51;;;;;;;;;;;;;;;;;;5050477;28;19913;-72
2021/06/02 04:27:17;;;;;;;;;;;;;;;;;;5046407;28;19912;-72
2021/06/02 04:29:43;;;;;;;;;;;;;;;;;;5045359;28;20042;-72
2021/06/02 04:32:09;;;;;;;;;;;;;;;;;;5054682;28;20003;-72
2021/06/02 04:34:35;;;;;;;;;;;;;;;;;;5063243;28;19924;-72
2021/06/02 04:37:01;;;;;;;;;;;;;;;;;;5065141;28;19912;-72
2021/06/02 04:39:27;;;;;;;;;;;;;;;;;;5063002;28;19939;-72
2021/06/02 04:41:53;;;;;;;;;;;;;;;;;;5046103;28;19916;-73
2021/06/02 04:44:18;;;;;;;;;;;;;;;;;;5066306;28;19920;-72
2021/06/02 04:46:44;;;;;;;;;;;;;;;;;;5051165;28;20383;-73
2021/06/02 04:49:10;;;;;;;;;;;;;;;;;;5052623;28;19909;-72
2021/06/02 04:51:36;;;;;;;;;;;;;;;;;;5050749;28;19921;-72
2021/06/02 04:54:02;;;;;;;;;;;;;;;;;;5050235;28;19938;-73
2021/06/02 04:56:28;;;;;;;;;;;;;;;;;;5033315;28;19917;-72
2021/06/02 04:58:54;;;;;;;;;;;;;;;;;;5032984;28;20762;-72
2021/06/02 05:01:20;;;;;;;;;;;;;;;;;;5050370;28;19919;-73
2021/06/02 05:03:45;;;;;;;;;;;;;;;;;;5035958;28;19913;-73
2021/06/02 05:06:11;;;;;;;;;;;;;;;;;;5032190;28;19956;-72
2021/06/02 05:08:37;;;;;;;;;;;;;;;;;;5052110;28;19916;-73
2021/06/02 05:11:03;;;;;;;;;;;;;;;;;;5050885;28;19928;-72
2021/06/02 05:13:29;;;;;;;;;;;;;;;;;;5049425;28;19960;-73
2021/06/02 05:15:55;;;;;;;;;;;;;;;;;;5048032;28;19917;-71
2021/06/02 05:18:21;;;;;;;;;;;;;;;;;;5043279;28;19913;-71
2021/06/02 05:23:12;;;;;;;;;;;;;;;;;;5042308;28;19916;-72
2021/06/02 05:25:38;;;;;;;;;;;;;;;;;;5048429;28;20406;-72
2021/06/02 05:28:04;;;;;;;;;;;;;;;;;;5050928;28;19916;-72
2021/06/02 05:30:30;;;;;;;;;;;;;;;;;;5046127;28;20015;-73
2021/06/02 05:32:56;;;;;;;;;;;;;;;;;;5041232;28;19920;-72
2021/06/02 05:35:22;;;;;;;;;;;;;;;;;;5039190;28;20435;-72
2021/06/02 05:37:48;;;;;;;;;;;;;;;;;;5054037;28;19921;-73
2021/06/02 05:40:14;;;;;;;;;;;;;;;;;;5050572;28;20288;-72
2021/06/02 05:42:39;;;;;;;;;;;;;;;;;;5048288;28;19951;-72
2021/06/02 05:45:05;;;;;;;;;;;;;;;;;;5034891;28;19974;-73
2021/06/02 05:47:31;;;;;;;;;;;;;;;;;;5040937;28;19921;-72
2021/06/02 05:49:57;;;;;;;;;;;;;;;;;;5034177;28;20283;-72
2021/06/02 05:52:23;;;;;;;;;;;;;;;;;;5050695;28;20039;-72
2021/06/02 05:54:49;;;;;;;;;;;;;;;;;;5032850;28;20360;-72
2021/06/02 05:57:15;;;;;;;;;;;;;;;;;;5038274;28;19917;-73
2021/06/02 05:59:41;;;;;;;;;;;;;;;;;;5040462;28;19913;-72
2021/06/02 06:02:06;;;;;;;;;;;;;;;;;;5043964;28;20058;-72
2021/06/02 06:04:32;;;;;;;;;;;;;;;;;;5050140;28;19913;-73
2021/06/02 06:06:58;;;;;;;;;;;;;;;;;;5042198;28;19920;-71
2021/06/02 06:09:24;;;;;;;;;;;;;;;;;;5030756;28;19917;-73
2021/06/02 06:11:51;;;;;;;;;;;;;;;;;;5038706;28;19929;-72
2021/06/02 06:14:17;;;;;;;;;;;;;;;;;;5047528;28;20355;-73
2021/06/02 06:16:43;;;;;;;;;;;;;;;;;;5044937;28;19917;-72
2021/06/02 06:19:09;;;;;;;;;;;;;;;;;;5048356;28;19913;-74
2021/06/02 06:21:35;;;;;;;;;;;;;;;;;;5032506;28;19927;-72
2021/06/02 06:24:00;;;;;;;;;;;;;;;;;;5034362;28;20435;-72
2021/06/02 06:26:26;;;;;;;;;;;;;;;;;;5049802;28;19913;-72
2021/06/02 06:28:52;;;;;;;;;;;;;;;;;;5033401;28;19960;-73
2021/06/02 06:31:18;;;;;;;;;;;;;;;;;;5039262;28;19968;-72
2021/06/02 06:33:44;;;;;;;;;;;;;;;;;;5040678;28;19917;-73
2021/06/02 06:36:10;;;;;;;;;;;;;;;;;;5030761;28;20303;-73
2021/06/02 06:38:36;;;;;;;;;;;;;;;;;;5039875;28;19913;-73
2021/06/02 06:41:02;;;;;;;;;;;;;;;;;;5048667;28;19913;-72
2021/06/02 06:43:28;;;;;;;;;;;;;;;;;;5039820;28;19939;-72
2021/06/02 06:45:54;;;;;;;;;;;;;;;;;;5030724;28;20394;-71
2021/06/02 06:48:21;;;;;;;;;;;;;;;;;;5038947;28;19921;-73
2021/06/02 06:50:47;;;;;;;;;;;;;;;;;;5051879;28;20298;-71
2021/06/02 06:53:13;;;;;;;;;;;;;;;;;;5052928;28;19920;-72
2021/06/02 06:55:39;;;;;;;;;;;;;;;;;;5054444;28;19908;-72
2021/06/02 06:58:05;;;;;;;;;;;;;;;;;;5053448;28;19917;-72
2021/06/02 07:00:32;;;;;;;;;;;;;;;;;;5053283;28;19994;-72
2021/06/02 07:02:58;;;;;;;;;;;;;;;;;;5052876;28;19920;-72
2021/06/02 07:05:24;;;;;;;;;;;;;;;;;;5054291;28;19908;-72
2021/06/02 07:07:50;;;;;;;;;;;;;;;;;;5053488;28;19912;-71
2021/06/02 07:10:16;;;;;;;;;;;;;;;;;;5053931;28;19927;-72
2021/06/02 07:12:42;;;;;;;;;;;;;;;;;;5052057;28;19927;-71
2021/06/02 07:15:08;;;;;;;;;;;;;;;;;;5054007;28;19916;-72
2021/06/02 07:17:33;;;;;;;;;;;;;;;;;;5053147;28;19905;-72
2021/06/02 07:19:59;;;;;;;;;;;;;;;;;;5033628;28;19909;-72
2021/06/02 07:22:25;;;;;;;;;;;;;;;;;;5034009;28;19909;-71
2021/06/02 07:24:51;;;;;;;;;;;;;;;;;;5052133;28;19935;-71
2021/06/02 07:27:17;;;;;;;;;;;;;;;;;;5053694;28;19909;-72
2021/06/02 07:29:43;;;;;;;;;;;;;;;;;;5037146;28;20271;-72
2021/06/02 07:32:09;;;;;;;;;;;;;;;;;;5034738;28;19916;-72
2021/06/02 07:34:35;;;;;;;;;;;;;;;;;;5053624;28;19998;-71
2021/06/02 07:37:01;;;;;;;;;;;;;;;;;;5052838;28;20318;-72
2021/06/02 07:39:26;;;;;;;;;;;;;;;;;;5051941;28;19913;-74
2021/06/02 07:41:52;;;;;;;;;;;;;;;;;;5054148;28;20270;-71
2021/06/02 07:44:18;;;;;;;;;;;;;;;;;;5052717;28;19948;-71
2021/06/02 07:46:44;;;;;;;;;;;;;;;;;;5052428;28;20283;-71
2021/06/02 07:49:10;;;;;;;;;;;;;;;;;;5054311;28;19908;-72
2021/06/02 07:51:36;;;;;;;;;;;;;;;;;;5052719;28;19931;-70
2021/06/02 07:54:02;;;;;;;;;;;;;;;;;;5053359;28;19909;-71
2021/06/02 07:56:28;;;;;;;;;;;;;;;;;;5050615;28;19916;-71
2021/06/02 07:58:54;;;;;;;;;;;;;;;;;;5066221;28;19919;-71
2021/06/02 08:01:20;;;;;;;;;;;;;;;;;;5046602;28;19913;-71
2021/06/02 08:03:45;;;;;;;;;;;;;;;;;;5050472;28;20266;-71
2021/06/02 08:06:11;;;;;;;;;;;;;;;;;;5052413;28;19916;-72
2021/06/02 08:08:37;;;;;;;;;;;;;;;;;;5051216;28;20393;-72
2021/06/02 08:11:03;;;;;;;;;;;;;;;;;;5053035;28;20092;-71
2021/06/02 08:13:30;;;;;;;;;;;;;;;;;;5052014;28;19983;-71
2021/06/02 08:15:56;;;;;;;;;;;;;;;;;;5052396;28;19909;-72
2021/06/02 08:18:22;;;;;;;;;;;;;;;;;;5051474;28;20251;-71
2021/06/02 08:20:48;;;;;;;;;;;;;;;;;;5032944;28;19909;-72
2021/06/02 08:23:14;;;;;;;;;;;;;;;;;;5033018;28;20007;-71
2021/06/02 08:25:40;;;;;;;;;;;;;;;;;;5049665;28;19919;-71
2021/06/02 08:28:06;;;;;;;;;;;;;;;;;;5059793;28;20399;-71
2021/06/02 08:30:31;;;;;;;;;;;;;;;;;;5056816;28;19928;-71
2021/06/02 08:32:58;;;;;;;;;;;;;;;;;;5049889;28;20332;-72
2021/06/02 08:35:24;;;;;;;;;;;;;;;;;;5052572;28;19913;-72
2021/06/02 08:37:50;;;;;;;;;;;;;;;;;;5051611;28;20377;-72
2021/06/02 08:40:16;;;;;;;;;;;;;;;;;;5052745;28;19916;-71
2021/06/02 08:42:42;;;;;;;;;;;;;;;;;;5051301;28;20437;-72
2021/06/02 08:45:08;;;;;;;;;;;;;;;;;;5049682;28;19919;-71
2021/06/02 08:47:34;;;;;;;;;;;;;;;;;;5051766;28;19920;-71
2021/06/02 08:50:00;;;;;;;;;;;;;;;;;;5052339;28;19924;-72
2021/06/02 08:52:26;;;;;;;;;;;;;;;;;;5051513;28;20369;-70
2021/06/02 08:54:51;;;;;;;;;;;;;;;;;;5051371;28;19917;-73
2021/06/02 08:57:17;;;;;;;;;;;;;;;;;;5051366;28;19916;-72
2021/06/02 08:59:43;;;;;;;;;;;;;;;;;;5051749;28;19912;-72
2021/06/02 09:02:09;;;;;;;;;;;;;;;;;;5052051;28;19913;-72
2021/06/02 09:04:35;;;;;;;;;;;;;;;;;;5051021;28;19917;-72
2021/06/02 09:07:01;;;;;;;;;;;;;;;;;;5051167;28;19913;-72
2021/06/02 09:09:27;;;;;;;;;;;;;;;;;;5050828;28;19915;-72
2021/06/02 09:11:53;;;;;;;;;;;;;;;;;;5051804;28;19921;-72
2021/06/02 09:14:19;;;;;;;;;;;;;;;;;;5050908;28;19916;-72
2021/06/02 09:16:45;;;;;;;;;;;;;;;;;;5051247;28;19921;-71
2021/06/02 09:19:11;;;;;;;;;;;;;;;;;;5049749;28;20278;-72
2021/06/02 09:21:36;;;;;;;;;;;;;;;;;;5050871;28;19994;-71
2021/06/02 09:24:02;;;;;;;;;;;;;;;;;;5046238;28;19913;-71
2021/06/02 09:26:30;;;;;;;;;;;;;;;;;;5039270;28;20158;-71
2021/06/02 09:28:59;;;;;;;;;;;;;;;;;;5047451;28;19917;-72
2021/06/02 09:31:26;;;;;;;;;;;;;;;;;;5032632;28;20004;-72
2021/06/02 09:33:52;;;;;;;;;;;;;;;;;;5051503;28;19917;-71
2021/06/02 09:36:18;;;;;;;;;;;;;;;;;;5052990;28;19916;-70
2021/06/02 09:38:43;;;;;;;;;;;;;;;;;;5066086;28;19916;-71
2021/06/02 09:41:09;;;;;;;;;;;;;;;;;;5068140;28;20386;-71
2021/06/02 09:43:35;;;;;;;;;;;;;;;;;;5071531;28;19977;-73
2021/06/02 09:46:01;;;;;;;;;;;;;;;;;;5052927;28;19954;-73
2021/06/02 09:48:27;;;;;;;;;;;;;;;;;;5055430;28;19956;-72
2021/06/02 09:50:55;;;;;;;;;;;;;;;;;;5050199;28;20661;-73
2021/06/02 09:53:21;;;;;;;;;;;;;;;;;;5049923;28;20028;-73
2021/06/02 09:55:46;;;;;;;;;;;;;;;;;;5068290;28;19912;-74
2021/06/02 09:58:12;;;;;;;;;;;;;;;;;;5059371;28;19951;-73
2021/06/02 10:00:38;;;;;;;;;;;;;;;;;;5053691;28;19988;-73
2021/06/02 10:03:05;;;;;;;;;;;;;;;;;;5050576;28;19909;-74
2021/06/02 10:05:31;;;;;;;;;;;;;;;;;;5043511;28;19919;-73
2021/06/02 10:07:57;;;;;;;;;;;;;;;;;;5050648;28;19915;-73
2021/06/02 10:10:23;;;;;;;;;;;;;;;;;;5048792;28;19940;-73
2021/06/02 10:12:49;;;;;;;;;;;;;;;;;;5061666;28;19956;-74
2021/06/02 10:15:15;;;;;;;;;;;;;;;;;;5059558;28;20346;-75
2021/06/02 10:17:40;;;;;;;;;;;;;;;;;;5050696;28;20381;-75
2021/06/02 10:20:06;;;;;;;;;;;;;;;;;;5043304;28;19909;-74
2021/06/02 10:22:32;;;;;;;;;;;;;;;;;;5030250;28;19935;-75
2021/06/02 10:24:58;;;;;;;;;;;;;;;;;;5034003;28;20413;-75
2021/06/02 10:27:24;;;;;;;;;;;;;;;;;;5050656;28;19966;-76
2021/06/02 10:29:50;;;;;;;;;;;;;;;;;;5051801;28;19913;-75
2021/06/02 10:32:16;;;;;;;;;;;;;;;;;;5050397;28;19917;-75
2021/06/02 10:34:42;;;;;;;;;;;;;;;;;;5051362;28;19909;-75
2021/06/02 10:37:10;;;;;;;;;;;;;;;;;;5070670;28;20015;-75
2021/06/02 10:39:36;;;;;;;;;;;;;;;;;;5053906;28;19913;-74
2021/06/02 10:42:03;;;;;;;;;;;;;;;;;;5043841;28;19920;-74
2021/06/02 10:44:29;;;;;;;;;;;;;;;;;;5043315;28;20363;-74
2021/06/02 10:46:55;;;;;;;;;;;;;;;;;;5041769;28;19995;-75
2021/06/02 10:49:21;;;;;;;;;;;;;;;;;;5041782;28;19956;-75
2021/06/02 10:51:47;;;;;;;;;;;;;;;;;;5050390;28;19921;-76
2021/06/02 10:54:13;;;;;;;;;;;;;;;;;;5050350;28;19909;-75
2021/06/02 10:56:39;;;;;;;;;;;;;;;;;;5049595;28;19920;-74
2021/06/02 10:59:04;;;;;;;;;;;;;;;;;;5049843;28;19909;-74
2021/06/02 11:01:30;;;;;;;;;;;;;;;;;;5035298;28;20343;-75
2021/06/02 11:03:56;;;;;;;;;;;;;;;;;;5052189;28;19917;-74
2021/06/02 11:06:22;;;;;;;;;;;;;;;;;;5050068;28;20358;-75
2021/06/02 11:08:48;;;;;;;;;;;;;;;;;;5050185;28;19959;-73
2021/06/02 11:11:14;;;;;;;;;;;;;;;;;;5048393;28;19928;-74
2021/06/02 11:13:40;;;;;;;;;;;;;;;;;;5050023;28;19909;-74
2021/06/02 11:16:06;;;;;;;;;;;;;;;;;;5051037;28;19920;-75
2021/06/02 11:18:32;;;;;;;;;;;;;;;;;;5048692;28;19913;-73
2021/06/02 11:20:58;;;;;;;;;;;;;;;;;;5049871;28;19956;-73
2021/06/02 11:23:24;;;;;;;;;;;;;;;;;;5048638;28;20332;-72
2021/06/02 11:25:50;;;;;;;;;;;;;;;;;;5048148;28;20012;-73
2021/06/02 11:28:16;;;;;;;;;;;;;;;;;;5050102;28;19943;-72
2021/06/02 11:30:42;;;;;;;;;;;;;;;;;;5045550;28;19921;-72
2021/06/02 11:33:07;;;;;;;;;;;;;;;;;;5030387;28;20011;-72
2021/06/02 11:35:33;;;;;;;;;;;;;;;;;;5029856;28;19917;-72
2021/06/02 11:37:59;;;;;;;;;;;;;;;;;;5054099;28;19956;-71
2021/06/02 11:40:25;;;;;;;;;;;;;;;;;;5046616;28;19921;-72
2021/06/02 11:42:52;;;;;;;;;;;;;;;;;;5040426;28;19921;-72
2021/06/02 11:45:18;;;;;;;;;;;;;;;;;;5052736;28;20275;-71
2021/06/02 11:47:44;;;;;;;;;;;;;;;;;;5050089;28;19963;-71
2021/06/02 11:50:10;;;;;;;;;;;;;;;;;;5052966;28;19974;-70
2021/06/02 11:52:36;;;;;;;;;;;;;;;;;;5050462;28;20388;-71
2021/06/02 11:55:03;;;;;;;;;;;;;;;;;;5051397;28;19913;-71
2021/06/02 11:57:28;;;;;;;;;;;;;;;;;;5053880;28;19912;-71
2021/06/02 11:59:54;;;;;;;;;;;;;;;;;;5053614;28;20370;-71
2021/06/02 12:02:20;;;;;;;;;;;;;;;;;;5051905;28;19915;-71
2021/06/02 12:04:46;;;;;;;;;;;;;;;;;;5049846;28;20277;-71
2021/06/02 12:07:12;;;;;;;;;;;;;;;;;;5053117;28;19996;-71
2021/06/02 12:09:38;;;;;;;;;;;;;;;;;;5051714;28;20007;-71
2021/06/02 12:12:04;;;;;;;;;;;;;;;;;;5052780;28;19917;-71
2021/06/02 12:14:30;;;;;;;;;;;;;;;;;;5052381;28;19909;-71
2021/06/02 12:16:56;;;;;;;;;;;;;;;;;;5052653;28;19920;-71
2021/06/02 12:19:22;;;;;;;;;;;;;;;;;;5051454;28;19913;-69
2021/06/02 12:21:48;;;;;;;;;;;;;;;;;;5053443;28;20306;-71
2021/06/02 12:24:16;;;;;;;;;;;;;;;;;;5053484;28;19955;-71
2021/06/02 12:26:42;;;;;;;;;;;;;;;;;;5051175;28;19912;-71
2021/06/02 12:29:08;;;;;;;;;;;;;;;;;;5052326;28;19912;-71
2021/06/02 12:31:34;;;;;;;;;;;;;;;;;;5052955;28;20378;-71
2021/06/02 12:34:00;;;;;;;;;;;;;;;;;;5051754;28;19912;-68
2021/06/02 12:36:26;;;;;;;;;;;;;;;;;;5052693;28;19909;-72
2021/06/02 12:38:52;;;;;;;;;;;;;;;;;;5051853;28;20011;-70
2021/06/02 12:41:18;;;;;;;;;;;;;;;;;;5051531;28;19916;-69
2021/06/02 12:43:46;;;;;;;;;;;;;;;;;;5050843;28;20355;-69
2021/06/02 12:46:12;;;;;;;;;;;;;;;;;;5052435;28;19912;-69
2021/06/02 12:48:38;;;;;;;;;;;;;;;;;;5051580;28;20378;-69
2021/06/02 12:51:04;;;;;;;;;;;;;;;;;;5052498;28;20282;-69
2021/06/02 12:53:30;;;;;;;;;;;;;;;;;;5052736;28;19908;-69
2021/06/02 12:55:56;;;;;;;;;;;;;;;;;;5052290;28;20019;-70
2021/06/02 12:58:22;;;;;;;;;;;;;;;;;;5050407;28;19912;-69
2021/06/02 13:00:47;;;;;;;;;;;;;;;;;;5050904;28;19917;-69
2021/06/02 13:03:13;;;;;;;;;;;;;;;;;;5052456;28;19955;-69
2021/06/02 13:05:39;;;;;;;;;;;;;;;;;;5051375;28;19913;-70
2021/06/02 13:08:05;;;;;;;;;;;;;;;;;;5053059;28;20007;-69
2021/06/02 13:10:31;;;;;;;;;;;;;;;;;;5053068;28;19920;-70
2021/06/02 13:12:57;;;;;;;;;;;;;;;;;;5052532;28;20269;-69
2021/06/02 13:15:23;;;;;;;;;;;;;;;;;;5051550;28;19909;-70
2021/06/02 13:17:49;;;;;;;;;;;;;;;;;;5049172;28;20350;-69
2021/06/02 13:20:15;;;;;;;;;;;;;;;;;;5050335;28;20705;-71
2021/06/02 13:22:41;;;;;;;;;;;;;;;;;;5050456;28;19909;-70
2021/06/02 13:25:07;;;;;;;;;;;;;;;;;;5050242;28;19913;-70
2021/06/02 13:27:32;;;;;;;;;;;;;;;;;;5051883;28;19939;-70
2021/06/02 13:29:58;;;;;;;;;;;;;;;;;;5045237;28;19978;-71
2021/06/02 13:32:24;;;;;;;;;;;;;;;;;;5045859;28;19932;-70
2021/06/02 13:34:50;;;;;;;;;;;;;;;;;;5043488;28;19983;-70
2021/06/02 13:37:16;;;;;;;;;;;;;;;;;;5037782;28;19923;-70
2021/06/02 13:39:42;;;;;;;;;;;;;;;;;;5052174;28;19919;-69
2021/06/02 13:42:08;;;;;;;;;;;;;;;;;;5048126;28;20011;-69
2021/06/02 13:44:34;;;;;;;;;;;;;;;;;;5051316;28;20055;-70
2021/06/02 13:47:00;;;;;;;;;;;;;;;;;;5059792;28;19928;-70
2021/06/02 13:49:25;;;;;;;;;;;;;;;;;;5061968;28;19913;-70
2021/06/02 13:51:51;;;;;;;;;;;;;;;;;;5049620;28;20309;-70
2021/06/02 13:54:17;;;;;;;;;;;;;;;;;;5051494;28;19913;-69
2021/06/02 13:56:43;;;;;;;;;;;;;;;;;;5051590;28;20334;-70
2021/06/02 13:59:09;;;;;;;;;;;;;;;;;;5052565;28;20362;-70
2021/06/02 14:01:35;;;;;;;;;;;;;;;;;;5062284;28;19916;-70
2021/06/02 14:04:01;;;;;;;;;;;;;;;;;;5049541;28;20271;-71
2021/06/02 14:06:27;;;;;;;;;;;;;;;;;;5050920;28;19913;-70
2021/06/02 14:08:53;;;;;;;;;;;;;;;;;;5050854;28;19979;-71
2021/06/02 14:11:19;;;;;;;;;;;;;;;;;;5041302;28;19944;-70
2021/06/02 14:13:45;;;;;;;;;;;;;;;;;;5047153;28;19936;-70
2021/06/02 14:16:10;;;;;;;;;;;;;;;;;;5055760;28;19946;-71
2021/06/02 14:18:36;;;;;;;;;;;;;;;;;;5049658;28;19958;-70
2021/06/02 14:21:02;;;;;;;;;;;;;;;;;;5051184;28;20262;-71
2021/06/02 14:23:28;;;;;;;;;;;;;;;;;;5058504;28;20274;-70
2021/06/02 14:25:54;;;;;;;;;;;;;;;;;;5051143;28;19909;-71
2021/06/02 14:28:20;;;;;;;;;;;;;;;;;;5054766;28;20351;-71
2021/06/02 14:30:46;;;;;;;;;;;;;;;;;;5051889;28;19932;-71
2021/06/02 14:33:12;;;;;;;;;;;;;;;;;;5049464;28;20014;-70
2021/06/02 14:35:37;;;;;;;;;;;;;;;;;;5054442;28;19912;-71
2021/06/02 14:38:04;;;;;;;;;;;;;;;;;;5043075;28;19921;-71
2021/06/02 14:40:30;;;;;;;;;;;;;;;;;;5054360;28;20382;-71
2021/06/02 14:42:56;;;;;;;;;;;;;;;;;;5050971;28;19997;-70
2021/06/02 14:45:21;;;;;;;;;;;;;;;;;;5048933;28;19913;-70
2021/06/02 14:47:47;;;;;;;;;;;;;;;;;;5037095;28;19921;-71
2021/06/02 14:50:13;;;;;;;;;;;;;;;;;;5063428;28;20352;-70
2021/06/02 14:52:39;;;;;;;;;;;;;;;;;;5044355;28;19913;-71
2021/06/02 14:55:05;;;;;;;;;;;;;;;;;;5043541;28;19921;-71
2021/06/02 14:57:31;;;;;;;;;;;;;;;;;;5035437;28;19940;-73
2021/06/02 14:59:57;;;;;;;;;;;;;;;;;;5031730;28;19978;-72
2021/06/02 15:02:23;;;;;;;;;;;;;;;;;;5032313;28;19925;-72
2021/06/02 15:04:51;;;;;;;;;;;;;;;;;;5044493;28;19912;-72
2021/06/02 15:07:17;;;;;;;;;;;;;;;;;;5064336;28;19909;-72
2021/06/02 15:09:42;;;;;;;;;;;;;;;;;;5055101;28;19969;-73
2021/06/02 15:12:08;;;;;;;;;;;;;;;;;;5055222;28;19923;-70
2021/06/02 15:14:34;;;;;;;;;;;;;;;;;;5055572;28;19916;-70
2021/06/02 15:17:01;;;;;;;;;;;;;;;;;;5058089;28;19956;-70
2021/06/02 15:19:27;;;;;;;;;;;;;;;;;;5055197;28;19997;-70
2021/06/02 15:21:53;;;;;;;;;;;;;;;;;;5058807;28;19913;-70
2021/06/02 15:24:19;;;;;;;;;;;;;;;;;;5055095;28;19908;-70
2021/06/02 15:26:45;;;;;;;;;;;;;;;;;;5060831;28;19916;-71
2021/06/02 15:29:11;;;;;;;;;;;;;;;;;;5054204;28;19917;-71
2021/06/02 15:31:37;;;;;;;;;;;;;;;;;;5052609;28;20019;-74
2021/06/02 15:34:03;;;;;;;;;;;;;;;;;;5053654;28;19912;-75
2021/06/02 15:36:29;;;;;;;;;;;;;;;;;;5053209;28;19913;-73
2021/06/02 15:38:55;;;;;;;;;;;;;;;;;;5053606;28;20691;-73
2021/06/02 15:41:20;;;;;;;;;;;;;;;;;;5040551;28;19963;-73
2021/06/02 15:43:46;;;;;;;;;;;;;;;;;;5045640;28;20275;-74
2021/06/02 15:46:13;;;;;;;;;;;;;;;;;;5034041;28;19963;-72
2021/06/02 15:48:39;;;;;;;;;;;;;;;;;;5048766;28;19917;-74
2021/06/02 15:51:05;;;;;;;;;;;;;;;;;;5053265;28;19927;-73
2021/06/02 15:53:31;;;;;;;;;;;;;;;;;;5053470;28;19908;-74
2021/06/02 15:55:57;;;;;;;;;;;;;;;;;;5051699;28;19909;-74
2021/06/02 15:58:23;;;;;;;;;;;;;;;;;;5053303;28;20090;-73
2021/06/02 16:00:48;;;;;;;;;;;;;;;;;;5052695;28;20359;-75
2021/06/02 16:03:14;;;;;;;;;;;;;;;;;;5053131;28;19913;-73
2021/06/02 16:05:40;;;;;;;;;;;;;;;;;;5052994;28;20348;-75
2021/06/02 16:08:06;;;;;;;;;;;;;;;;;;5052671;28;19912;-74
2021/06/02 16:10:32;;;;;;;;;;;;;;;;;;5053008;28;20015;-74
2021/06/02 16:12:58;;;;;;;;;;;;;;;;;;5052384;28;20255;-73
2021/06/02 16:15:24;;;;;;;;;;;;;;;;;;5052712;28;19913;-74
2021/06/02 16:17:51;;;;;;;;;;;;;;;;;;5052586;28;19912;-72
2021/06/02 16:20:16;;;;;;;;;;;;;;;;;;5051309;28;20295;-73
2021/06/02 16:22:42;;;;;;;;;;;;;;;;;;5049843;28;19913;-72
2021/06/02 16:25:08;;;;;;;;;;;;;;;;;;5052902;28;19916;-74
2021/06/02 16:27:34;;;;;;;;;;;;;;;;;;5053272;28;19904;-74
2021/06/02 16:30:00;;;;;;;;;;;;;;;;;;5050683;28;19971;-73
2021/06/02 16:32:26;;;;;;;;;;;;;;;;;;5052819;28;20010;-74
2021/06/02 16:34:52;;;;;;;;;;;;;;;;;;5052657;28;20001;-72
2021/06/02 16:37:18;;;;;;;;;;;;;;;;;;5052223;28;19944;-72
2021/06/02 16:39:44;;;;;;;;;;;;;;;;;;5052340;28;19916;-73